Keenes, Illinois
Current Conditions -  °F | °C
As of 9:15 AM on Sunday 21 Dec 2014 (Local Time) from KMVN Reporting Station
Broken Clouds Broken Clouds  
Wind Chill: 30°   Ceiling: 3000
Heat Index: 34°   Visibility: 8mi
Dew Point: 27°   Wind: 5mph
Humidity: 75%   Direction: 130°SE
Pressure: 30.26"   Gusts: NA
Location:  38.34°N, 88.64°W
Report Text: KMVN 211515Z AUTO 13004KT 8SM BKN030 01/M03 A3026 RMK AO1
Loading
Personal Weather Stations






























Interactive Weather Map New forecast layout! Learn more

10-Day Weather Forecast

Advertisements
Track Severe Weather on mobile